Tiempo atmosférico en la estación meteorológica de Bailo, Huesca (722 m.)



Fecha
DESCASC
Temp. máxima en grados centígrados (hora)
DESCASC
Temp. mínima en grados centígrados (hora)
DESCASC
Temp. media en grados centígrados
DESCASC
Racha de viento máxima en m/sg (hora)
DESCASC
Velocidad máxima media en intervalos de 10 minutos(hora)
DESCASC
Precipitaciones diarias en mm
DESCASC
Precipitaciones de 00:00 a 06:00 en mm
DESCASC
Precipitaciones de 06:00 a 12:00 en mm
DESCASC
Precipitaciones de 12:00 a 18:00 en mm
DESCASC
Precipitaciones de 18:00 a 24:00 en mm
DESCASC
28-05-2020 26.4 (17:20) 13.7 (06:20) 20 8.89 (20:50) 5.83 (21:00) 0 0 0 0 0
27-05-2020 25.2 (16:50) 13.2 (06:50) 19.2 8.06 (14:50) 6.11 (14:30) 4 0 0 2.4 1.6
26-05-2020 25.8 (16:10) 13 (06:30) 19.4 8.89 (17:40) 6.67 (18:40) 0 0 0 0 0
25-05-2020 22.6 (16:40) 14.4 (07:00) 18.5 8.33 (17:40) 5.28 (17:40) 0 0 0 0 0
24-05-2020 24.2 (16:50) 9.6 (00:00) 16.9 6.11 (16:40) 3.89 (16:10) 0 0 0 0 0
23-05-2020 24.1 (14:50) 12.5 (00:00) 18.3 10.28 (00:10) 6.94 (00:10) 0 0 0 0 0
22-05-2020 28.8 (18:40) 13.1 (00:00) 20.9 11.11 (23:10) 7.78 (23:30) 0 0 0 0 0
21-05-2020 27.9 (17:30) 12.3 (00:00) 20.1 6.94 (15:40) 4.17 (18:10) 0 0 0 0 0
20-05-2020 27.7 (17:10) 10.5 (00:00) 19.1 7.22 (18:50) 5.28 (18:50) 0 0 0 0 0
19-05-2020 26.7 (16:10) 8.3 (00:00) 17.5 9.17 (18:00) 6.39 (17:00) 0 0 0 0 0
18-05-2020 24.2 (16:10) 7.3 (00:00) 15.8 9.17 (17:30) 6.39 (17:30) 0 0 0 0 0
17-05-2020 22 (16:50) 8.7 (00:00) 15.3 10.28 (18:10) 7.5 (18:20) 0 0 0 0 0
16-05-2020 18.7 (17:10) 8.8 (00:00) 13.8 13.06 (18:20) 8.89 (19:30) 0 0 0 0 0
15-05-2020 16.7 (14:00) 9.1 (00:00) 12.9 7.5 (10:50) 5.28 (15:30) 4.6 0 0.2 1.4 3
14-05-2020 16.4 (14:00) 7.9 (00:00) 12.1 9.17 (15:00) 6.94 (15:00) 10.8 0 0 5.8 5
13-05-2020 14.9 (19:40) 9.5 (00:00) 12.2 10.28 (02:50) 7.5 (03:00) 9 8.2 0 0.8 0
12-05-2020 19 (14:50) 7.6 (00:00) 13.3 6.94 (15:50) 4.17 (15:50) 2.4 0 0 0 2.4
11-05-2020 15.6 (16:20) 9.8 (00:00) 12.7 11.67 (05:40) 7.78 (05:30) 3 0.4 2.2 0.2 0.2
10-05-2020 14.7 (00:00) 10.6 (00:00) 12.7 10.83 (05:40) 7.22 (22:40) 22.6 8.8 4.2 6.4 3.2
09-05-2020 22.2 (16:10) 10.7 (00:00) 16.5 15 (05:40) 10.56 (05:30) 7.8 2.6 5.2 0 0
08-05-2020 24.4 (15:50) 14.7 (00:00) 19.5 11.94 (17:20) 8.33 (18:10) 0 0 0 0 0
07-05-2020 24.6 (16:30) 11.2 (00:00) 17.9 11.94 (21:30) 8.06 (22:30) 0 0 0 0 0
06-05-2020 25.5 (17:50) 8.9 (00:00) 17.2 6.11 (19:30) 4.17 (19:40) 0 0 0 0 0
05-05-2020 22.6 (14:30) 12.9 (00:00) 17.8 10 (01:10) 8.06 (01:10) 0 0 0 0 0
04-05-2020 28.2 (15:00) 15.7 (00:00) 22 12.5 (17:40) 7.78 (22:40) 0.4 0 0 0 0.4
03-05-2020 25.3 (19:00) 9.2 (00:00) 17.2 5 (23:30) 3.33 (23:30) 0 0 0 0 0
02-05-2020 22.2 (17:10) 11.3 (00:00) 16.8 9.44 (18:30) 7.22 (21:40) 1.8 1.8 0 0 0
01-05-2020 18.9 (15:40) 11 (00:00) 14.9 8.61 (16:50) 5.83 (16:50) 9 0 0.2 2.8 6
30-04-2020 18 (18:10) 9.8 (00:00) 13.9 12.22 (15:30) 8.33 (15:10) 0 0 0 0 0
29-04-2020 17.1 (17:30) 4.6 (00:00) 10.9 7.22 (18:00) 4.44 (17:30) 0 0 0 0 0

Gráficas

Temp. máximas Temp. mínimas Temp. medias Precipitaciones Rachas de viento máximas Velocidades máximas media en intervalos de 10 minutos

Datos horarios

Fecha y hora oficial Temperatura (ºC) Velocidad del viento (km/h) Dirección del viento Racha (km/h) Dirección de racha Precipitación (mm) Presión (hPa) Tendencia (hPa) Humedad (%)
2020-05-28 23:00:00 17.8 2 Noroeste 10 Noroeste 0 -- -- 72
2020-05-28 22:00:00 19.4 6 Oeste 23 Este 0 -- -- 65
2020-05-28 21:00:00 22.2 21 Este 32 Este 0 -- -- 57
2020-05-28 20:00:00 25.4 10 Noroeste 19 Oeste 0 -- -- 41
2020-05-28 19:00:00 26.3 13 Noroeste 21 Noroeste 0 -- -- 41
2020-05-28 18:00:00 26 5 Oeste 15 Oeste 0 -- -- 40
2020-05-28 17:00:00 26.2 6 Oeste 13 Noroeste 0 -- -- 41
2020-05-28 16:00:00 26.2 4 Sudeste 17 Sur 0 -- -- 43
2020-05-28 15:00:00 25.3 8 Sudeste 21 Sudeste 0 -- -- 42
2020-05-28 14:00:00 25.2 9 Sur 19 Este 0 -- -- 45
2020-05-28 13:00:00 23.7 9 Oeste 20 Sudoeste 0 -- -- 47
2020-05-28 12:00:00 22.8 8 Sur 15 Sur 0 -- -- 40
2020-05-28 11:00:00 21.2 8 Sur 17 Sudeste 0 -- -- 47
2020-05-28 10:00:00 19.9 7 Sur 16 Sur 0 -- -- 62
2020-05-28 09:00:00 17.9 6 Sur 13 Sur 0 -- -- 70
2020-05-28 08:00:00 16 0 Calma 15 Sur 0 -- -- 72
2020-05-28 07:00:00 14 5 Sudeste 19 Sudeste 0 -- -- 73
2020-05-28 06:00:00 14.2 12 Sudeste 20 Este 0 -- -- 78
2020-05-28 05:00:00 14.7 11 Sur 17 Sur 0 -- -- 81
2020-05-28 04:00:00 15.2 9 Sur 19 Sur 0 -- -- 83
2020-05-28 03:00:00 15.6 8 Sur 17 Sur 0 -- -- 83
2020-05-28 02:00:00 16.4 6 Sur 15 Sur 0 -- -- 77
2020-05-28 01:00:00 17.2 3 Sur 17 Sur 0 -- -- 79
2020-05-28 00:00:00 17.2 4 Sur 21 Sur 0 -- -- 81
2020-05-27 23:00:00 17.7 6 Sudeste 15 Sur 0.2 -- -- 87
2020-05-27 22:00:00 18.1 4 Sudoeste 9 Sur 1.4 -- -- 87
2020-05-27 21:00:00 19.2 4 Sudoeste 8 Sudeste 0 -- -- 83
2020-05-27 20:00:00 19.3 6 Este 10 Este 0 -- -- 81
2020-05-27 19:00:00 20.2 11 Este 21 Este 0 -- -- 81
2020-05-27 18:00:00 20.3 5 Sur 25 Sudeste 2.4 -- -- 81
2020-05-27 17:00:00 25 7 Noroeste 17 Sudoeste 0 -- -- 53
2020-05-27 16:00:00 23.4 14 Sur 26 Sur 0 -- -- 57
2020-05-27 15:00:00 24 17 Sudoeste 29 Sudoeste 0 -- -- 59
2020-05-27 14:00:00 23.2 11 Sudoeste 18 Oeste 0 -- -- 62
2020-05-27 13:00:00 22.6 7 Noroeste 24 Oeste 0 -- -- 61
2020-05-27 12:00:00 23.9 11 Oeste 22 Sur 0 -- -- 60
2020-05-27 11:00:00 23.4 12 Sudeste 20 Sudeste 0 -- -- 60
2020-05-27 10:00:00 18.3 3 Nordeste 6 Nordeste 0 -- -- 76
2020-05-27 09:00:00 15.7 2 Noroeste 5 Nordeste 0 -- -- 83
2020-05-27 08:00:00 15.1 3 Este 5 Este 0 -- -- 86
2020-05-27 07:00:00 13.4 3 Noroeste 4 Oeste 0 -- -- 90
2020-05-27 06:00:00 13.7 0 Calma 4 Noroeste 0 -- -- 87
2020-05-27 05:00:00 14.7 0 Calma 4 Nordeste 0 -- -- 84
2020-05-27 04:00:00 15.4 3 Oeste 5 Noroeste 0 -- -- 81
2020-05-27 03:00:00 15.7 2 Oeste 7 Sudoeste 0 -- -- 80
2020-05-27 02:00:00 16.1 6 Sudoeste 8 Sudoeste 0 -- -- 78
2020-05-27 01:00:00 17 5 Sudoeste 9 Sur 0 -- -- 74
2020-05-27 00:00:00 18.5 0 Calma 6 Norte 0 -- -- 69
2020-05-26 23:00:00 19.1 4 Noroeste 11 Noroeste 0 -- -- 69
2020-05-26 22:00:00 19.5 6 Noroeste 12 Norte 0 -- -- 68
2020-05-26 21:00:00 21.9 7 Norte 23 Norte 0 -- -- 60
2020-05-26 20:00:00 23.4 16 Norte 27 Noroeste 0 -- -- 55
2020-05-26 19:00:00 25.2 21 Noroeste 31 Oeste 0 -- -- 51
2020-05-26 18:00:00 25.6 18 Noroeste 32 Noroeste 0 -- -- 51
2020-05-26 17:00:00 25 22 Oeste 31 Noroeste 0 -- -- 55
2020-05-26 16:00:00 25.1 13 Oeste 27 Noroeste 0 -- -- 54
2020-05-26 15:00:00 24.5 13 Noroeste 26 Noroeste 0 -- -- 53
2020-05-26 14:00:00 23.9 8 Noroeste 22 Oeste 0 -- -- 59
2020-05-26 13:00:00 23.4 10 Norte 17 Este 0 -- -- 62
2020-05-26 12:00:00 21.8 6 Noroeste 10 Oeste 0 -- -- 65
2020-05-26 11:00:00 19.6 3 Norte 7 Sudoeste 0 -- -- 68
2020-05-26 10:00:00 16.8 3 Noroeste 8 Nordeste 0 -- -- 81
2020-05-26 09:00:00 14.7 4 Norte 6 Noroeste 0 -- -- 89
2020-05-26 08:00:00 14.3 0 Calma 4 Oeste 0 -- -- 88
2020-05-26 07:00:00 13.4 3 Norte 6 Norte 0 -- -- 88
2020-05-26 06:00:00 13.4 2 Norte 6 Sudoeste 0 -- -- 86
2020-05-26 05:00:00 13.5 0 Calma 5 Sudoeste 0 -- -- 84
2020-05-26 04:00:00 13.9 3 Oeste -- -- 0 -- -- 83
2020-05-26 03:00:00 14.8 0 Calma 4 Oeste 0 -- -- 80
2020-05-26 02:00:00 14.4 3 Este 8 Noroeste 0 -- -- 82
2020-05-26 01:00:00 15.3 4 Oeste 8 Oeste 0 -- -- 77
2020-05-26 00:00:00 15.2 7 Oeste 10 Oeste 0 -- -- 78
2020-05-25 23:00:00 16.2 4 Oeste 14 Noroeste 0 -- -- 76
2020-05-25 22:00:00 17.3 4 Oeste 13 Oeste 0 -- -- 75
2020-05-25 21:00:00 19.1 8 Noroeste 14 Norte 0 -- -- 73
2020-05-25 20:00:00 20.7 7 Noroeste 18 Noroeste 0 -- -- 65
2020-05-25 19:00:00 22.1 13 Noroeste 21 Nordeste 0 -- -- 59
2020-05-25 18:00:00 22 13 Norte 30 Norte 0 -- -- 59
2020-05-25 17:00:00 21.9 12 Norte 22 Noroeste 0 -- -- 64
2020-05-25 16:00:00 22.3 6 Norte 13 Noroeste 0 -- -- 65
2020-05-25 15:00:00 21 5 Norte 18 Noroeste 0 -- -- 69
2020-05-25 14:00:00 18.7 10 Oeste 12 Oeste 0 -- -- 79
2020-05-25 13:00:00 18.9 7 Norte 16 Sur 0 -- -- 75
2020-05-25 12:00:00 19 7 Sudoeste 20 Sudeste 0 -- -- 78
2020-05-25 11:00:00 18.5 5 Este 9 Este 0 -- -- 77
2020-05-25 10:00:00 16.9 0 Calma 5 Norte 0 -- -- 80
2020-05-25 09:00:00 16.3 3 Norte 6 Norte 0 -- -- 83
2020-05-25 08:00:00 15 0 Calma 4 Este 0 -- -- 86
2020-05-25 07:00:00 14.4 3 Oeste 4 Oeste 0 -- -- 87
2020-05-25 06:00:00 14.8 2 Noroeste 4 Sudoeste 0 -- -- 86
2020-05-25 05:00:00 15.1 4 Sudoeste 5 Sudoeste 0 -- -- 84
2020-05-25 04:00:00 15.4 0 Calma 5 Nordeste 0 -- -- 82
2020-05-25 03:00:00 15.6 0 Calma 4 Sudoeste 0 -- -- 81
2020-05-25 02:00:00 15.7 2 Sur 6 Sudoeste 0 -- -- 78
2020-05-25 01:00:00 16.2 4 Sudoeste 6 Sudoeste 0 -- -- 77
2020-05-25 00:00:00 16.8 3 Nordeste 8 Sudeste 0 -- -- 73
2020-05-24 23:00:00 17.6 4 Este 7 Nordeste 0 -- -- 73
2020-05-24 22:00:00 18.9 4 Sudeste 15 Oeste 0 -- -- 72
2020-05-24 21:00:00 21.4 12 Oeste 17 Oeste 0 -- -- 63
2020-05-24 20:00:00 23.3 13 Noroeste 19 Noroeste 0 -- -- 59
2020-05-24 19:00:00 23.8 10 Noroeste 20 Noroeste 0 -- -- 56
2020-05-24 18:00:00 24.1 11 Noroeste 22 Noroeste 0 -- -- 56
2020-05-24 17:00:00 24.1 6 Norte 22 Noroeste 0 -- -- 56
2020-05-24 16:00:00 24.1 12 Noroeste 21 Noroeste 0 -- -- 59
2020-05-24 15:00:00 22.8 5 Nordeste 17 Nordeste 0 -- -- 57
2020-05-24 14:00:00 21.7 6 Noroeste 15 Noroeste 0 -- -- 60
2020-05-24 13:00:00 20 8 Nordeste 14 Nordeste 0 -- -- 66
2020-05-24 12:00:00 17.8 4 Norte 11 Noroeste 0 -- -- 66
2020-05-24 11:00:00 16 2 Norte 8 Noroeste 0 -- -- 70
2020-05-24 10:00:00 14.8 3 Nordeste 8 Norte 0 -- -- 71
2020-05-24 09:00:00 13.5 4 Norte 8 Norte 0 -- -- 74
2020-05-24 08:00:00 11.3 3 Nordeste 5 Nordeste 0 -- -- 87
2020-05-24 07:00:00 9.7 0 Calma 3 Sudoeste 0 -- -- 89
2020-05-24 06:00:00 10.2 0 Calma 4 Sudoeste 0 -- -- 87
2020-05-24 05:00:00 10 0 Calma 7 Sudoeste 0 -- -- 86
2020-05-24 04:00:00 10.6 5 Sur 7 Sur 0 -- -- 83
2020-05-24 03:00:00 11.1 4 Sudoeste 8 Sudoeste 0 -- -- 81
2020-05-24 02:00:00 11.5 4 Sur 8 Sudoeste 0 -- -- 79
2020-05-24 01:00:00 12 3 Sur 6 Sur 0 -- -- 77
2020-05-24 00:00:00 12.5 4 Sudeste 8 Sudoeste 0 -- -- 77
2020-05-23 23:00:00 13.6 4 Oeste 13 Noroeste 0 -- -- 73
2020-05-23 22:00:00 15 4 Sur 20 Norte 0 -- -- 68
2020-05-23 21:00:00 17.3 13 Norte 28 Noroeste 0 -- -- 61
2020-05-23 20:00:00 19.1 21 Norte 33 Noroeste 0 -- -- 58
2020-05-23 19:00:00 21 21 Norte 35 Norte 0 -- -- 56
2020-05-23 18:00:00 22.8 19 Norte 30 Norte 0 -- -- 54
2020-05-23 17:00:00 23.6 14 Norte 33 Norte 0 -- -- 54
2020-05-23 16:00:00 23.7 20 Noroeste 30 Noroeste 0 -- -- 55
2020-05-23 15:00:00 24 13 Noroeste 25 Noroeste 0 -- -- 57
2020-05-23 14:00:00 23.4 14 Noroeste 26 Noroeste 0 -- -- 58
2020-05-23 13:00:00 22.7 12 Norte 22 Norte 0 -- -- 58
2020-05-23 12:00:00 21.2 10 Norte 22 Norte 0 -- -- 65
2020-05-23 11:00:00 20.1 8 Nordeste 13 Norte 0 -- -- 69
2020-05-23 10:00:00 18.2 6 Noroeste 12 Noroeste 0 -- -- 74
2020-05-23 09:00:00 17.8 4 Sudeste 9 Sudeste 0 -- -- 78
2020-05-23 08:00:00 14.9 7 Sudeste 10 Sudeste 0 -- -- 88
2020-05-23 07:00:00 15.1 2 Sudeste 13 Sudeste 0 -- -- 85
2020-05-23 06:00:00 15.9 4 Sudoeste 13 Este 0 -- -- 80
2020-05-23 05:00:00 19.5 6 Noroeste 27 Sur 0 -- -- 55
2020-05-23 04:00:00 19.7 17 Sur 23 Sur 0 -- -- 52
2020-05-23 03:00:00 20.9 13 Sur 20 Sur 0 -- -- 49
2020-05-23 02:00:00 21.1 7 Sur 17 Sur 0 -- -- 51
2020-05-23 01:00:00 22.1 13 Sur 37 Sur 0 -- -- 49
2020-05-23 00:00:00 23.5 24 Sur 40 Sur 0 -- -- 46
2020-05-22 23:00:00 24 25 Sur 39 Sur 0 -- -- 47
2020-05-22 22:00:00 24.4 16 Sur 20 Sudoeste 0 -- -- 43
2020-05-22 21:00:00 26.1 14 Sur 17 Sur 0 -- -- 43
2020-05-22 20:00:00 28 13 Sudoeste 18 Sur 0 -- -- 39
2020-05-22 19:00:00 28.8 14 Sur 22 Sur 0 -- -- 34
2020-05-22 18:00:00 27.9 9 Sur 19 Sudoeste 0 -- -- 35
2020-05-22 17:00:00 28.1 4 Este 12 Este 0 -- -- 41
2020-05-22 16:00:00 28.3 4 Nordeste 18 Nordeste 0 -- -- 42
2020-05-22 15:00:00 27.9 10 Nordeste 17 Nordeste 0 -- -- 48
2020-05-22 14:00:00 26.8 6 Norte 16 Norte 0 -- -- 45
2020-05-22 13:00:00 26.9 5 Nordeste 11 Nordeste 0 -- -- 44
2020-05-22 12:00:00 25.1 3 Nordeste 9 Sudeste 0 -- -- 53
2020-05-22 11:00:00 23 4 Nordeste 9 Nordeste 0 -- -- 61
2020-05-22 10:00:00 19.5 3 Sudeste 9 Sudeste 0 -- -- 74
2020-05-22 09:00:00 16.7 3 Norte 6 Nordeste 0 -- -- 76
2020-05-22 08:00:00 14.3 0 Calma 3 Este 0 -- -- 83
2020-05-22 07:00:00 13.2 0 Calma 3 Oeste 0 -- -- 81
2020-05-22 06:00:00 13.5 2 Oeste 4 Sudoeste 0 -- -- 79
2020-05-22 05:00:00 14 0 Calma 4 Sudoeste 0 -- -- 76
2020-05-22 04:00:00 14.9 2 Sur 5 Noroeste 0 -- -- 72
2020-05-22 03:00:00 15.3 4 Oeste 5 Oeste 0 -- -- 70
2020-05-22 02:00:00 16.3 4 Noroeste 5 Noroeste 0 -- -- 65
2020-05-22 01:00:00 16.8 3 Noroeste 6 Sudoeste 0 -- -- 63
2020-05-22 00:00:00 18.2 2 Noroeste 9 Sudoeste 0 -- -- 59
2020-05-21 23:00:00 19.7 0 Calma 7 Sudoeste 0 -- -- 52
2020-05-21 22:00:00 20.9 4 Sudoeste 8 Sudoeste 0 -- -- 52
2020-05-21 21:00:00 24.6 4 Oeste 12 Noroeste 0 -- -- 53
2020-05-21 20:00:00 26.6 11 Noroeste 18 Noroeste 0 -- -- 49
2020-05-21 19:00:00 27.6 13 Noroeste 21 Noroeste 0 -- -- 39
2020-05-21 18:00:00 27.9 13 Noroeste 21 Noroeste 0 -- -- 43
2020-05-21 17:00:00 26.8 2 Nordeste 23 Sudoeste 0 -- -- 51
2020-05-21 16:00:00 26.9 7 Norte 25 Este 0 -- -- 53
2020-05-21 15:00:00 26.9 11 Norte 19 Nordeste 0 -- -- 55
2020-05-21 14:00:00 25.8 10 Norte 18 Norte 0 -- -- 49
2020-05-21 13:00:00 25.2 6 Norte 12 Noroeste 0 -- -- 51
2020-05-21 12:00:00 23.2 5 Norte 10 Este 0 -- -- 53
2020-05-21 11:00:00 20.6 3 Norte 8 Nordeste 0 -- -- 57
2020-05-21 10:00:00 17.3 4 Norte 6 Norte 0 -- -- 76
2020-05-21 09:00:00 15.6 3 Este 8 Este 0 -- -- 75
2020-05-21 08:00:00 13.8 0 Calma 4 Este 0 -- -- 84
2020-05-21 07:00:00 12.5 3 Sudoeste 6 Sudeste 0 -- -- 81
2020-05-21 06:00:00 12.3 5 Sudeste 6 Norte 0 -- -- 84
2020-05-21 05:00:00 12.7 4 Noroeste 7 Oeste 0 -- -- 82
2020-05-21 04:00:00 13.8 2 Sur 9 Sudoeste 0 -- -- 77
2020-05-21 03:00:00 13.7 4 Este 6 Norte 0 -- -- 80
2020-05-21 02:00:00 15.4 4 Oeste 8 Oeste 0 -- -- 69
2020-05-21 01:00:00 16.5 5 Sudoeste 8 Sudoeste 0 -- -- 67
2020-05-21 00:00:00 17.7 3 Sudoeste 7 Sudoeste 0 -- -- 65
2020-05-20 23:00:00 18.6 5 Sudoeste 8 Sudoeste 0 -- -- 65
2020-05-20 22:00:00 20.6 0 Calma 10 Oeste 0 -- -- 57
2020-05-20 21:00:00 23.4 7 Noroeste 15 Noroeste 0 -- -- 49
2020-05-20 20:00:00 25.9 10 Noroeste 24 Oeste 0 -- -- 46
2020-05-20 19:00:00 26.7 17 Oeste 26 Oeste 0 -- -- 36
2020-05-20 18:00:00 27.5 13 Noroeste 21 Noroeste 0 -- -- 33
2020-05-20 17:00:00 27.6 10 Norte 22 Norte 0 -- -- 30
2020-05-20 16:00:00 27 10 Noroeste 19 Noroeste 0 -- -- 33
2020-05-20 15:00:00 26.2 8 Norte 17 Norte 0 -- -- 37
2020-05-20 14:00:00 25.1 10 Nordeste 17 Nordeste 0 -- -- 41
2020-05-20 13:00:00 23.6 4 Nordeste 12 Nordeste 0 -- -- 47
2020-05-20 12:00:00 21.9 4 Noroeste 9 Noroeste 0 -- -- 41
2020-05-20 11:00:00 19.3 3 Nordeste 7 Norte 0 -- -- 57
2020-05-20 10:00:00 16.9 3 Sudeste 9 Nordeste 0 -- -- 71
2020-05-20 09:00:00 14.3 5 Nordeste 8 Nordeste 0 -- -- 79
2020-05-20 08:00:00 11.9 0 Calma 6 Nordeste 0 -- -- 78
2020-05-20 07:00:00 10.7 4 Sudeste 4 Sudeste 0 -- -- 84
2020-05-20 06:00:00 11.1 0 Calma 3 Sudoeste 0 -- -- 79
2020-05-20 05:00:00 11.7 0 Calma 4 Norte 0 -- -- 78
2020-05-20 04:00:00 12.5 3 Norte 5 Oeste 0 -- -- 75
2020-05-20 03:00:00 13.1 0 Calma 8 Oeste 0 -- -- 73
2020-05-20 02:00:00 13.8 4 Noroeste 9 Sudoeste 0 -- -- 70
2020-05-20 01:00:00 14 6 Oeste 9 Oeste 0 -- -- 71
2020-05-20 00:00:00 14.7 6 Oeste 10 Sur 0 -- -- 69
2020-05-19 23:00:00 16.3 8 Sur 11 Sur 0 -- -- 64
2020-05-19 22:00:00 18.1 0 Calma 11 Noroeste 0 -- -- 59
2020-05-19 21:00:00 20 11 Noroeste 24 Noroeste 0 -- -- 55
2020-05-19 20:00:00 22 16 Noroeste 30 Noroeste 0 -- -- 51
2020-05-19 19:00:00 23.5 21 Noroeste 31 Noroeste 0 -- -- 46
2020-05-19 18:00:00 24.8 22 Noroeste 33 Noroeste 0 -- -- 45
2020-05-19 17:00:00 25.4 23 Norte 31 Norte 0 -- -- 41
2020-05-19 16:00:00 26.5 15 Norte 25 Noroeste 0 -- -- 36
2020-05-19 15:00:00 25.9 13 Noroeste 25 Noroeste 0 -- -- 37
2020-05-19 14:00:00 25.1 8 Noroeste 23 Noroeste 0 -- -- 40
2020-05-19 13:00:00 23.6 9 Noroeste 23 Noroeste 0 -- -- 41
2020-05-19 12:00:00 21.6 7 Norte 15 Norte 0 -- -- 47
2020-05-19 11:00:00 19.1 6 Noroeste 12 Norte 0 -- -- 49
2020-05-19 10:00:00 17.4 5 Nordeste 9 Norte 0 -- -- 55
2020-05-19 09:00:00 14.1 3 Este 8 Este 0 -- -- 71
2020-05-19 08:00:00 10.5 0 Calma 6 Noroeste 0 -- -- 78
2020-05-19 07:00:00 8.5 0 Calma 4 Sudoeste 0 -- -- 84
2020-05-19 06:00:00 8.3 0 Calma 6 Nordeste 0 -- -- 86
2020-05-19 05:00:00 9.9 6 Sur 8 Sur 0 -- -- 78
2020-05-19 04:00:00 10 2 Norte 5 Noroeste 0 -- -- 79
2020-05-19 03:00:00 11.1 2 Norte 10 Oeste 0 -- -- 73
2020-05-19 02:00:00 11.9 4 Oeste 13 Oeste 0 -- -- 71
2020-05-19 01:00:00 12.1 9 Oeste 14 Oeste 0 -- -- 73
2020-05-19 00:00:00 13.5 4 Sudoeste 12 Noroeste 0 -- -- 67
2020-05-18 23:00:00 14.4 0 Calma 9 Noroeste 0 -- -- 64
2020-05-18 22:00:00 15.5 4 Noroeste 16 Noroeste 0 -- -- 60
2020-05-18 21:00:00 17.4 14 Noroeste 25 Norte 0 -- -- 57
2020-05-18 20:00:00 19.8 16 Noroeste 28 Norte 0 -- -- 50
2020-05-18 19:00:00 21.4 20 Norte 33 Noroeste 0 -- -- 50
2020-05-18 18:00:00 22.4 21 Noroeste 33 Noroeste 0 -- -- 48
2020-05-18 17:00:00 23.5 18 Norte 32 Norte 0 -- -- 45
2020-05-18 16:00:00 24.1 14 Oeste 32 Oeste 0 -- -- 38
2020-05-18 15:00:00 23.5 11 Noroeste 26 Noroeste 0 -- -- 41
2020-05-18 14:00:00 22.8 8 Noroeste 15 Noroeste 0 -- -- 36
2020-05-18 13:00:00 21.4 4 Nordeste 12 Oeste 0 -- -- 40
2020-05-18 12:00:00 19.4 5 Noroeste 10 Noroeste 0 -- -- 45
2020-05-18 11:00:00 17.1 5 Noroeste 12 Noroeste 0 -- -- 48
2020-05-18 10:00:00 14.7 3 Sudoeste 8 Este 0 -- -- 54
2020-05-18 09:00:00 11.3 0 Calma 5 Noroeste 0 -- -- 82
2020-05-18 08:00:00 9.8 2 Este 5 Este 0 -- -- 85
2020-05-18 07:00:00 7.3 2 Sudoeste 4 Nordeste 0 -- -- 88
2020-05-18 06:00:00 8.1 0 Calma 4 Sudoeste 0 -- -- 84
2020-05-18 05:00:00 8.5 2 Noroeste 4 Norte 0 -- -- 83
2020-05-18 04:00:00 9.2 2 Nordeste 6 Sudoeste 0 -- -- 81
2020-05-18 03:00:00 9.9 3 Oeste 8 Noroeste 0 -- -- 78
2020-05-18 02:00:00 10.5 4 Oeste 7 Oeste 0 -- -- 75
2020-05-18 01:00:00 10.9 5 Oeste 9 Oeste 0 -- -- 74
2020-05-18 00:00:00 11.5 5 Oeste 9 Oeste 0 -- -- 72
2020-05-17 23:00:00 12.5 5 Oeste 15 Noroeste 0 -- -- 67
2020-05-17 22:00:00 13.1 10 Noroeste 23 Noroeste 0 -- -- 64
2020-05-17 21:00:00 15.3 18 Noroeste 31 Norte 0 -- -- 59
2020-05-17 20:00:00 18.2 18 Noroeste 35 Noroeste 0 -- -- 49
2020-05-17 19:00:00 19.7 21 Noroeste 37 Norte 0 -- -- 48
2020-05-17 18:00:00 21 22 Norte 32 Noroeste 0 -- -- 46
2020-05-17 17:00:00 22 13 Norte 26 Noroeste 0 -- -- 45
2020-05-17 16:00:00 21.6 13 Noroeste 24 Noroeste 0 -- -- 37
2020-05-17 15:00:00 20.6 7 Noroeste 22 Norte 0 -- -- 39
2020-05-17 14:00:00 19.5 4 Nordeste 12 Noroeste 0 -- -- 39
2020-05-17 13:00:00 18.5 3 Norte 14 Norte 0 -- -- 42
2020-05-17 12:00:00 17.3 4 Noroeste 10 Norte 0 -- -- 50
2020-05-17 11:00:00 15.9 5 Norte 11 Norte 0 -- -- 55
2020-05-17 10:00:00 13.8 6 Norte 14 Noroeste 0 -- -- 63
2020-05-17 09:00:00 11.9 7 Noroeste 15 Noroeste 0 -- -- 69
2020-05-17 08:00:00 10.3 6 Norte 14 Noroeste 0 -- -- 74
2020-05-17 07:00:00 8.7 6 Noroeste 10 Noroeste 0 -- -- 77
2020-05-17 06:00:00 9.6 5 Noroeste 14 Noroeste 0 -- -- 74
2020-05-17 05:00:00 9.3 9 Noroeste 21 Noroeste 0 -- -- 77
2020-05-17 04:00:00 9.7 11 Noroeste 24 Noroeste 0 -- -- 77
2020-05-17 03:00:00 10.3 17 Noroeste 24 Noroeste 0 -- -- 76
2020-05-17 02:00:00 10.5 18 Noroeste 30 Noroeste 0 -- -- 77
2020-05-17 01:00:00 11 17 Noroeste 29 Noroeste 0 -- -- 75
2020-05-17 00:00:00 10.8 17 Noroeste 30 Noroeste 0 -- -- 74
2020-05-16 23:00:00 11.3 18 Noroeste 32 Noroeste 0 -- -- 74
2020-05-16 22:00:00 11.8 24 Noroeste 37 Noroeste 0 -- -- 71
2020-05-16 21:00:00 12.7 23 Noroeste 36 Noroeste 0 -- -- 65
2020-05-16 20:00:00 14 25 Noroeste 46 Noroeste 0 -- -- 62
2020-05-16 19:00:00 16.3 28 Noroeste 47 Norte 0 -- -- 55
2020-05-16 18:00:00 17.9 27 Noroeste 42 Noroeste 0 -- -- 51
2020-05-16 17:00:00 18.2 23 Norte 45 Noroeste 0 -- -- 50
2020-05-16 16:00:00 16.5 26 Noroeste 44 Noroeste 0 -- -- 56
2020-05-16 15:00:00 18 20 Noroeste 32 Noroeste 0 -- -- 59
2020-05-16 14:00:00 17.3 18 Noroeste 30 Noroeste 0 -- -- 60
2020-05-16 13:00:00 16 17 Norte 28 Norte 0 -- -- 64
2020-05-16 12:00:00 16 8 Noroeste 15 Norte 0 -- -- 72
2020-05-16 11:00:00 14.4 5 Norte 13 Norte 0 -- -- 81
2020-05-16 10:00:00 11.5 3 Este 5 Sudeste 0 -- -- 87
2020-05-16 09:00:00 10.1 3 Sudeste 4 Sudeste 0 -- -- 91
2020-05-16 08:00:00 9.1 3 Sudeste 5 Sudeste 0 -- -- 93
2020-05-16 07:00:00 9.1 2 Sur 5 Sudoeste 0 -- -- 93
2020-05-16 06:00:00 8.9 4 Sur 5 Sur 0 -- -- 94
2020-05-16 05:00:00 8.8 0 Calma 4 Sudeste 0 -- -- 95
2020-05-16 04:00:00 9 3 Este 4 Sudeste 0 -- -- 95
2020-05-16 03:00:00 9 0 Calma 4 Sudoeste 0 -- -- 95
2020-05-16 02:00:00 9.2 3 Sur 4 Sudoeste 0 -- -- 93
2020-05-16 01:00:00 9.8 0 Calma 5 Sudeste 0 -- -- 93
2020-05-16 00:00:00 10.2 2 Noroeste 8 Norte 0 -- -- 93
2020-05-15 23:00:00 10.6 5 Norte 9 Norte 0 -- -- 92
2020-05-15 22:00:00 10.9 4 Norte 7 Noroeste 0 -- -- 93
2020-05-15 21:00:00 11.2 4 Este 14 Noroeste 0.2 -- -- 94
2020-05-15 20:00:00 11.2 10 Noroeste 18 Noroeste 0.6 -- -- 94
2020-05-15 19:00:00 11.9 7 Norte 10 Noroeste 2.2 -- -- 92
2020-05-15 18:00:00 12.2 4 Oeste 23 Nordeste 1.4 -- -- 89
2020-05-15 17:00:00 13.6 13 Norte 24 Norte 0 -- -- 83
2020-05-15 16:00:00 15.4 17 Oeste 24 Oeste 0 -- -- 72
2020-05-15 15:00:00 16.4 12 Noroeste 20 Norte 0 -- -- 67
2020-05-15 14:00:00 16.7 8 Norte 18 Norte 0 -- -- 65
2020-05-15 13:00:00 16.3 10 Noroeste 17 Noroeste 0 -- -- 66
2020-05-15 12:00:00 15.1 9 Norte 21 Norte 0 -- -- 76
2020-05-15 11:00:00 13.7 12 Norte 27 Norte 0 -- -- 74
2020-05-15 10:00:00 13.3 10 Norte 20 Norte 0 -- -- 79
2020-05-15 09:00:00 11.4 3 Norte 10 Noroeste 0.2 -- -- 87
2020-05-15 08:00:00 10 0 Calma 4 Noroeste 0 -- -- 92
2020-05-15 07:00:00 9.6 3 Oeste 5 Este 0 -- -- 90
2020-05-15 06:00:00 9.5 0 Calma 7 Noroeste 0 -- -- 90
2020-05-15 05:00:00 9.3 2 Norte 8 Noroeste 0 -- -- 90
2020-05-15 04:00:00 9.2 5 Noroeste 8 Noroeste 0 -- -- 89
2020-05-15 03:00:00 9.3 5 Noroeste 9 Noroeste 0 -- -- 89
2020-05-15 02:00:00 9.7 9 Noroeste 14 Noroeste 0 -- -- 91
2020-05-15 01:00:00 10 9 Noroeste 16 Oeste 0 -- -- 91
2020-05-15 00:00:00 10.8 7 Noroeste 12 Noroeste 0 -- -- 92
2020-05-14 23:00:00 11.2 7 Noroeste 10 Noroeste 0 -- -- 93
2020-05-14 22:00:00 11.5 3 Oeste 7 Noroeste 0 -- -- 94
2020-05-14 21:00:00 11.7 4 Sur 10 Sur 0 -- -- 91
2020-05-14 20:00:00 11.9 2 Oeste 24 Nordeste 0.6 -- -- 93
2020-05-14 19:00:00 11.1 12 Sudeste 22 Sur 4.4 -- -- 92
2020-05-14 18:00:00 11.5 7 Sudeste 31 Este 5.4 -- -- 88
2020-05-14 17:00:00 14.3 13 Sudoeste 20 Sur 0 -- -- 81
2020-05-14 16:00:00 13.7 4 Oeste 33 Noroeste 0.4 -- -- 82
2020-05-14 15:00:00 15.4 25 Oeste 33 Noroeste 0 -- -- 73
2020-05-14 14:00:00 16.4 6 Norte 11 Norte 0 -- -- 72
2020-05-14 13:00:00 15.8 3 Noroeste 8 Este 0 -- -- 72
2020-05-14 12:00:00 15.6 4 Este 14 Este 0 -- -- 73
2020-05-14 11:00:00 15 5 Nordeste 10 Nordeste 0 -- -- 78
2020-05-14 10:00:00 12.6 3 Nordeste 7 Norte 0 -- -- 85
2020-05-14 09:00:00 10.3 0 Calma 6 Nordeste 0 -- -- 97
2020-05-14 08:00:00 8.8 4 Este 6 Este 0 -- -- 96
2020-05-14 07:00:00 8.4 3 Oeste 6 Sudoeste 0 -- -- 96
2020-05-14 06:00:00 8.1 4 Norte 7 Sur 0 -- -- 94
2020-05-14 05:00:00 8.6 5 Sur 7 Sur 0 -- -- 94
2020-05-14 04:00:00 9.4 4 Oeste 10 Sudeste 0 -- -- 93
2020-05-14 03:00:00 10 5 Sudeste 12 Este 0 -- -- 91
2020-05-14 02:00:00 10.3 4 Sudoeste 8 Oeste 0 -- -- 92
2020-05-14 01:00:00 10.8 3 Noroeste 6 Noroeste 0 -- -- 92
2020-05-14 00:00:00 11.4 0 Calma 6 Sur 0 -- -- 90
2020-05-13 23:00:00 11.3 0 Calma 9 Sudoeste 0 -- -- 87
2020-05-13 22:00:00 11.5 6 Sudoeste 8 Sudoeste 0 -- -- 86
2020-05-13 21:00:00 14 0 Calma 4 Oeste 0 -- -- 81
2020-05-13 20:00:00 14.6 3 Sudoeste 6 Oeste 0 -- -- 74
2020-05-13 19:00:00 14.5 4 Noroeste 10 Sudeste 0 -- -- 77
2020-05-13 18:00:00 14.1 4 Sudeste 11 Sudeste 0.8 -- -- 82
2020-05-13 17:00:00 13.6 5 Noroeste 13 Este 0 -- -- 82
2020-05-13 16:00:00 13.8 8 Este 21 Norte 0 -- -- 82
2020-05-13 15:00:00 13.5 4 Nordeste 18 Sudoeste 0 -- -- 83
2020-05-13 14:00:00 13.6 17 Sudoeste 25 Oeste 0 -- -- 79
2020-05-13 13:00:00 13.5 18 Oeste 23 Oeste 0 -- -- 75
2020-05-13 12:00:00 13.2 5 Sudoeste 15 Sur 0 -- -- 76
2020-05-13 11:00:00 13.1 9 Sudeste 19 Sur 0 -- -- 77
2020-05-13 10:00:00 11.3 9 Sur 22 Sudeste 0 -- -- 84
2020-05-13 09:00:00 10.4 9 Sudeste 19 Sudeste 0 -- -- 86
2020-05-13 08:00:00 10.1 8 Sudoeste 16 Sur 0 -- -- 88
2020-05-13 07:00:00 9.8 10 Sur 22 Sudeste 0 -- -- 89
2020-05-13 06:00:00 9.9 12 Sur 23 Sudeste 0 -- -- 87
2020-05-13 05:00:00 9.8 15 Sur 24 Sur 0 -- -- 87
2020-05-13 04:00:00 9.7 14 Sudeste 35 Sudeste 1.8 -- -- 90
2020-05-13 03:00:00 9.7 27 Sudeste 37 Sudeste 5.2 -- -- 91
2020-05-13 02:00:00 11.9 17 Sur 33 Sudeste 1.2 -- -- 85
2020-05-13 01:00:00 11.9 8 Sudeste 19 Sudeste 0 -- -- 86
2020-05-13 00:00:00 11.5 4 Oeste 8 Sudoeste 0 -- -- 92
2020-05-12 23:00:00 11.9 4 Sur 8 Sur 0 -- -- 91
2020-05-12 22:00:00 12.1 4 Sur 8 Sudoeste 0 -- -- 87
2020-05-12 21:00:00 12.6 4 Sur 15 Sur 0.2 -- -- 86
2020-05-12 20:00:00 13.1 5 Sur 12 Sudoeste 1 -- -- 83
2020-05-12 19:00:00 14.3 5 Sudoeste 9 Oeste 1.2 -- -- 77
2020-05-12 18:00:00 15.9 3 Sudoeste 18 Sur 0 -- -- 71
2020-05-12 17:00:00 16.2 11 Sudoeste 22 Sur 0 -- -- 71
2020-05-12 16:00:00 17.5 14 Sur 25 Sur 0 -- -- 57
2020-05-12 15:00:00 18.7 12 Sudoeste 19 Sur 0 -- -- 54
2020-05-12 14:00:00 17.8 8 Sudeste 17 Sur 0 -- -- 59
2020-05-12 13:00:00 15.3 5 Nordeste 14 Norte 0 -- -- 73
2020-05-12 12:00:00 13.7 5 Oeste 13 Noroeste 0 -- -- 74
2020-05-12 11:00:00 12.5 10 Este 15 Este 0 -- -- 80
2020-05-12 10:00:00 11.2 5 Nordeste 12 Noroeste 0 -- -- 84
2020-05-12 09:00:00 10.6 4 Norte 7 Norte 0 -- -- 89
2020-05-12 08:00:00 9.6 4 Sudeste 7 Sudoeste 0 -- -- 89
2020-05-12 07:00:00 7.8 3 Sudeste 8 Sur 0 -- -- 92
2020-05-12 06:00:00 8 4 Sur 6 Sur 0 -- -- 92
2020-05-12 05:00:00 8.1 4 Este 10 Norte 0 -- -- 91
2020-05-12 04:00:00 8.6 5 Noroeste 10 Oeste 0 -- -- 87
2020-05-12 03:00:00 8.7 8 Oeste 12 Oeste 0 -- -- 89
2020-05-12 02:00:00 9.3 6 Noroeste 13 Noroeste 0 -- -- 84
2020-05-12 01:00:00 9.9 9 Noroeste 19 Oeste 0 -- -- 84
2020-05-12 00:00:00 10.4 10 Noroeste 19 Noroeste 0 -- -- 82
2020-05-11 23:00:00 10.6 12 Oeste 18 Noroeste 0 -- -- 82
2020-05-11 22:00:00 12 13 Noroeste 19 Norte 0 -- -- 78
2020-05-11 21:00:00 13 8 Noroeste 21 Norte 0 -- -- 74
2020-05-11 20:00:00 13.8 13 Norte 25 Norte 0 -- -- 71
2020-05-11 19:00:00 14.2 10 Noroeste 24 Norte 0.2 -- -- 79
2020-05-11 18:00:00 14.7 6 Noroeste 26 Norte 0 -- -- 74
2020-05-11 17:00:00 15.3 9 Nordeste 24 Nordeste 0 -- -- 70
2020-05-11 16:00:00 15.1 12 Nordeste 25 Nordeste 0 -- -- 76
2020-05-11 15:00:00 14.2 16 Nordeste 24 Norte 0 -- -- 79
2020-05-11 14:00:00 11.6 6 Este 15 Nordeste 0 -- -- 89
2020-05-11 13:00:00 11.7 5 Este 10 Este 0.2 -- -- 90
2020-05-11 12:00:00 11.2 3 Este 12 Norte 0.4 -- -- 94
2020-05-11 11:00:00 10.6 7 Nordeste 12 Nordeste 1.8 -- -- 94
2020-05-11 10:00:00 10.3 5 Nordeste 24 Noroeste 0 -- -- 91
2020-05-11 09:00:00 10.8 18 Noroeste 30 Noroeste 0 -- -- 82
2020-05-11 08:00:00 10.1 17 Noroeste 37 Noroeste 0 -- -- 88
2020-05-11 07:00:00 10.2 22 Noroeste 39 Noroeste 0 -- -- 84
2020-05-11 06:00:00 10.1 26 Noroeste 42 Noroeste 0 -- -- 86
2020-05-11 05:00:00 10 20 Noroeste 30 Noroeste 0 -- -- 90
2020-05-11 04:00:00 10.2 19 Noroeste 27 Noroeste 0 -- -- 89
2020-05-11 03:00:00 10.2 17 Noroeste 31 Noroeste 0 -- -- 90
2020-05-11 02:00:00 10.4 23 Noroeste 31 Oeste 0.2 -- -- 89
2020-05-11 01:00:00 10.5 20 Noroeste 33 Noroeste 0.2 -- -- 91
2020-05-11 00:00:00 10.6 21 Noroeste 31 Noroeste 0.2 -- -- 91
2020-05-10 23:00:00 10.6 18 Noroeste 35 Noroeste 0 -- -- 90
2020-05-10 22:00:00 10.9 22 Noroeste 34 Noroeste 0.8 -- -- 91
2020-05-10 21:00:00 11.1 22 Noroeste 36 Noroeste 1.2 -- -- 91
2020-05-10 20:00:00 11.2 16 Noroeste 24 Noroeste 0.6 -- -- 91
2020-05-10 19:00:00 11.8 13 Noroeste 26 Noroeste 0.4 -- -- 90
2020-05-10 18:00:00 12.7 3 Norte 8 Norte 0.2 -- -- 90
2020-05-10 17:00:00 12.3 4 Norte 8 Noroeste 0.8 -- -- 89
2020-05-10 16:00:00 12.5 2 Sudeste 6 Sudoeste 0.6 -- -- 86
2020-05-10 15:00:00 12.1 2 Oeste 6 Sudoeste 0 -- -- 87
2020-05-10 14:00:00 11.8 2 Sudoeste 7 Este 0.8 -- -- 92
2020-05-10 13:00:00 11.3 5 Oeste 18 Norte 4 -- -- 93
2020-05-10 12:00:00 11.8 15 Sudoeste 30 Sur 0.4 -- -- 88
2020-05-10 11:00:00 12.9 10 Sur 21 Sudoeste 0 -- -- 89
2020-05-10 10:00:00 12.1 8 Noroeste 19 Este 0.6 -- -- 92
2020-05-10 09:00:00 11.9 11 Este 23 Sudeste 0.4 -- -- 90
2020-05-10 08:00:00 11.9 4 Sur 15 Sudeste 0.2 -- -- 90
2020-05-10 07:00:00 12.1 12 Sudeste 34 Sur 2.6 -- -- 87
2020-05-10 06:00:00 12.5 23 Sur 39 Sur 8.8 -- -- 92
2020-05-10 05:00:00 13.5 14 Sur 24 Sur 0 -- -- 89
2020-05-10 04:00:00 13.6 17 Sur 27 Sur 0 -- -- 88
2020-05-10 03:00:00 13.8 18 Sur 30 Sur 0 -- -- 86
2020-05-10 02:00:00 13.7 8 Sur 22 Sudoeste 0 -- -- 86
2020-05-10 01:00:00 13.9 11 Sur 23 Sur 0 -- -- 84
2020-05-10 00:00:00 14.7 13 Sur 37 Sur 0 -- -- 81
2020-05-09 23:00:00 15.3 23 Sur 35 Sudoeste 0 -- -- 78
2020-05-09 22:00:00 15.8 21 Sudoeste 39 Sur 0 -- -- 77
2020-05-09 21:00:00 16.8 24 Sur 48 Sudoeste 0 -- -- 74
2020-05-09 20:00:00 18.3 26 Sur 42 Sudoeste 0 -- -- 67
2020-05-09 19:00:00 19 26 Sur 40 Sur 0 -- -- 59
2020-05-09 18:00:00 19.1 21 Sudoeste 33 Sur 0 -- -- 49
2020-05-09 17:00:00 21.2 15 Sur 38 Sur 0 -- -- 45
2020-05-09 16:00:00 22 25 Sur 44 Sur 0 -- -- 44
2020-05-09 15:00:00 21.6 23 Sur 40 Sur 0 -- -- 43
2020-05-09 14:00:00 20.1 26 Sudoeste 46 Sur 0 -- -- 51
2020-05-09 13:00:00 20.2 18 Sur 30 Sur 0 -- -- 52
2020-05-09 12:00:00 17.5 13 Sur 25 Sudeste 0 -- -- 66
2020-05-09 11:00:00 15.4 18 Sur 36 Sur 0 -- -- 74
2020-05-09 10:00:00 12.6 18 Sur 36 Sur 0 -- -- 81
2020-05-09 09:00:00 11.3 7 Este 33 Sur 4 -- -- 90
2020-05-09 08:00:00 11.5 22 Sur 36 Sur 0.6 -- -- 84
2020-05-09 07:00:00 10.9 6 Oeste 23 Este 0.6 -- -- 89
2020-05-09 06:00:00 11.9 17 Sudeste 54 Oeste 2.6 -- -- 81
2020-05-09 05:00:00 15 6 Sudeste 26 Sudoeste 0 -- -- 62
2020-05-09 04:00:00 15.8 11 Sudoeste 26 Sur 0 -- -- 57
2020-05-09 03:00:00 16.3 18 Sur 28 Sur 0 -- -- 54
2020-05-09 02:00:00 15.3 9 Sudeste 35 Sudeste 0 -- -- 57
2020-05-09 01:00:00 16.3 16 Sur 31 Sur 0 -- -- 53
2020-05-09 00:00:00 16.9 23 Sur 35 Sur 0 -- -- 51
2020-05-08 23:00:00 16.6 9 Sudeste 18 Sur 0 -- -- 58
2020-05-08 22:00:00 17.4 9 Este 28 Sur 0 -- -- 57
2020-05-08 21:00:00 19.9 16 Sur 31 Sudoeste 0 -- -- 45
2020-05-08 20:00:00 21.9 19 Sur 35 Sudoeste 0 -- -- 41
2020-05-08 19:00:00 22.7 27 Sur 42 Sur 0 -- -- 37
2020-05-08 18:00:00 23.7 25 Sur 43 Sur 0 -- -- 32
2020-05-08 17:00:00 23.9 27 Sur 40 Sur 0 -- -- 33
2020-05-08 16:00:00 24.1 23 Sudoeste 39 Sur 0 -- -- 32
2020-05-08 15:00:00 23.7 19 Sur 32 Sur 0 -- -- 33
2020-05-08 14:00:00 22.4 19 Sudoeste 28 Sur 0 -- -- 42
2020-05-08 13:00:00 21.7 15 Sur 34 Sudoeste 0 -- -- 45
2020-05-08 12:00:00 21.5 17 Sudoeste 31 Sudoeste 0 -- -- 45
2020-05-08 11:00:00 20 19 Sur 33 Sur 0 -- -- 57
2020-05-08 10:00:00 18.8 17 Sur 27 Sur 0 -- -- 58
2020-05-08 09:00:00 16.6 13 Sudoeste 29 Sur 0 -- -- 61
2020-05-08 08:00:00 16.8 15 Sur 22 Sur 0 -- -- 60
2020-05-08 07:00:00 15.2 12 Sudeste 30 Sur 0 -- -- 62
2020-05-08 06:00:00 15.3 22 Sur 30 Sudoeste 0 -- -- 61
2020-05-08 05:00:00 15 9 Sudoeste 13 Sudoeste 0 -- -- 63
2020-05-08 04:00:00 15.2 2 Sudoeste 27 Sudeste 0 -- -- 60
2020-05-08 03:00:00 15.1 15 Sudeste 27 Sur 0 -- -- 61
2020-05-08 02:00:00 16.4 12 Sudeste 35 Sur 0 -- -- 57
2020-05-08 01:00:00 16.9 13 Sur 26 Sur 0 -- -- 62
2020-05-08 00:00:00 17.8 14 Sur 28 Sur 0 -- -- 61
2020-05-07 23:00:00 19.2 16 Sur 42 Sur 0 -- -- 58
2020-05-07 22:00:00 19.9 23 Sur 43 Sur 0 -- -- 58
2020-05-07 21:00:00 20.6 27 Sur 42 Sur 0 -- -- 55
2020-05-07 20:00:00 21.6 17 Sur 32 Sur 0 -- -- 51
2020-05-07 19:00:00 22.5 21 Sudoeste 36 Sur 0 -- -- 48
2020-05-07 18:00:00 23.5 20 Sudoeste 32 Sudoeste 0 -- -- 43
2020-05-07 17:00:00 24.4 20 Sur 36 Sur 0 -- -- 37
2020-05-07 16:00:00 24.1 16 Sur 34 Sudoeste 0 -- -- 40
2020-05-07 15:00:00 23.8 22 Sudoeste 33 Sur 0 -- -- 40
2020-05-07 14:00:00 22.5 18 Sudoeste 31 Sur 0 -- -- 51
2020-05-07 13:00:00 22.8 16 Sur 28 Sur 0 -- -- 52
2020-05-07 12:00:00 21.9 14 Sur 26 Sudoeste 0 -- -- 53
2020-05-07 11:00:00 21.4 12 Sur 22 Sudoeste 0 -- -- 56
2020-05-07 10:00:00 18.2 7 Este 17 Sur 0 -- -- 70
2020-05-07 09:00:00 15.8 10 Este 23 Este 0 -- -- 72
2020-05-07 08:00:00 12.9 3 Sudeste 9 Sudeste 0 -- -- 87
2020-05-07 07:00:00 11.2 4 Oeste 5 Oeste 0 -- -- 90
2020-05-07 06:00:00 12 0 Calma 5 Este 0 -- -- 86
2020-05-07 05:00:00 11.9 0 Calma 5 Sudoeste 0 -- -- 86
2020-05-07 04:00:00 12.6 0 Calma 4 Noroeste 0 -- -- 85
2020-05-07 03:00:00 13.4 0 Calma 5 Oeste 0 -- -- 80
2020-05-07 02:00:00 13.7 3 Sur 6 Norte 0 -- -- 79
2020-05-07 01:00:00 14.5 0 Calma 6 Sudoeste 0 -- -- 76
2020-05-07 00:00:00 15.6 5 Sudoeste 8 Sudoeste 0 -- -- 73
2020-05-06 23:00:00 16.8 2 Sudoeste 8 Noroeste 0 -- -- 68
2020-05-06 22:00:00 17.9 3 Noroeste 17 Noroeste 0 -- -- 65
2020-05-06 21:00:00 19.5 11 Noroeste 21 Noroeste 0 -- -- 62
2020-05-06 20:00:00 23.1 14 Noroeste 22 Noroeste 0 -- -- 47
2020-05-06 19:00:00 24.5 11 Noroeste 18 Noroeste 0 -- -- 43
2020-05-06 18:00:00 25.4 6 Norte 19 Noroeste 0 -- -- 38
2020-05-06 17:00:00 25.3 9 Noroeste 18 Noroeste 0 -- -- 36
2020-05-06 16:00:00 24.9 9 Oeste 18 Noroeste 0 -- -- 39
2020-05-06 15:00:00 24.4 8 Noroeste 14 Noroeste 0 -- -- 37
2020-05-06 14:00:00 23.2 6 Norte 13 Norte 0 -- -- 38
2020-05-06 13:00:00 22.2 4 Nordeste 9 Nordeste 0 -- -- 44
2020-05-06 12:00:00 20.1 4 Norte 9 Nordeste 0 -- -- 52
2020-05-06 11:00:00 18.1 3 Noroeste 9 Nordeste 0 -- -- 58
2020-05-06 10:00:00 15.3 3 Norte 7 Sur 0 -- -- 70
2020-05-06 09:00:00 13.1 4 Este 6 Este 0 -- -- 71
2020-05-06 08:00:00 11 0 Calma 5 Noroeste 0 -- -- 81
2020-05-06 07:00:00 8.9 0 Calma 4 Oeste 0 -- -- 82
2020-05-06 06:00:00 9.3 0 Calma 4 Nordeste 0 -- -- 82
2020-05-06 05:00:00 10 0 Calma 3 Sudoeste 0 -- -- 78
2020-05-06 04:00:00 10.4 0 Calma 4 Nordeste 0 -- -- 77
2020-05-06 03:00:00 11.5 2 Sur 5 Sudoeste 0 -- -- 72
2020-05-06 02:00:00 12.3 0 Calma 4 Este 0 -- -- 68
2020-05-06 01:00:00 12.8 2 Sudeste 6 Noroeste 0 -- -- 68
2020-05-06 00:00:00 13 2 Nordeste 8 Sudoeste 0 -- -- 67
2020-05-05 23:00:00 14.4 3 Noroeste 7 Sudoeste 0 -- -- 62
2020-05-05 22:00:00 16 2 Oeste 12 Sudoeste 0 -- -- 58
2020-05-05 21:00:00 17.6 9 Sudoeste 14 Sudoeste 0 -- -- 50
2020-05-05 20:00:00 21 4 Sudoeste 9 Sudoeste 0 -- -- 49
2020-05-05 19:00:00 21.7 5 Sudoeste 8 Noroeste 0 -- -- 49
2020-05-05 18:00:00 22.1 4 Oeste 13 Noroeste 0 -- -- 49
2020-05-05 17:00:00 21.3 9 Noroeste 14 Noroeste 0 -- -- 52
2020-05-05 16:00:00 22.1 7 Norte 16 Noroeste 0 -- -- 52
2020-05-05 15:00:00 22.3 6 Nordeste 12 Nordeste 0 -- -- 50
2020-05-05 14:00:00 22.3 5 Norte 14 Nordeste 0 -- -- 59
2020-05-05 13:00:00 21.7 7 Nordeste 13 Norte 0 -- -- 60
2020-05-05 12:00:00 20.6 4 Norte 9 Este 0 -- -- 59
2020-05-05 11:00:00 20.1 4 Nordeste 10 Este 0 -- -- 62
2020-05-05 10:00:00 18.9 6 Este 10 Sudeste 0 -- -- 62
2020-05-05 09:00:00 15.6 0 Calma 6 Norte 0 -- -- 72
2020-05-05 08:00:00 13.4 6 Sudoeste 10 Sudeste 0 -- -- 78
2020-05-05 07:00:00 13.4 8 Sudeste 20 Sudeste 0 -- -- 74
2020-05-05 06:00:00 16.5 11 Sur 22 Sudeste 0 -- -- 60
2020-05-05 05:00:00 16.5 11 Sudeste 25 Sudeste 0 -- -- 62
2020-05-05 04:00:00 17.1 5 Sudeste 25 Sur 0 -- -- 62
2020-05-05 03:00:00 18.7 16 Sur 28 Sudoeste 0 -- -- 56
2020-05-05 02:00:00 19 22 Sudoeste 36 Sudoeste 0 -- -- 57
2020-05-05 01:00:00 19.9 28 Sur 36 Sudoeste 0 -- -- 55
2020-05-05 00:00:00 19.4 24 Sudoeste 35 Sudoeste 0 -- -- 61
2020-05-04 23:00:00 19.5 24 Sudoeste 42 Sur 0.4 -- -- 68
2020-05-04 22:00:00 22 25 Sur 32 Sur 0 -- -- 52
2020-05-04 21:00:00 22.7 22 Sur 40 Sur 0 -- -- 58
2020-05-04 20:00:00 23.8 22 Sur 31 Sur 0 -- -- 57
2020-05-04 19:00:00 25.1 17 Sur 32 Sudoeste 0 -- -- 50
2020-05-04 18:00:00 24.9 18 Sur 45 Sudoeste 0 -- -- 48
2020-05-04 17:00:00 25.7 20 Sur 33 Sur 0 -- -- 48
2020-05-04 16:00:00 26.4 22 Sur 34 Sur 0 -- -- 43
2020-05-04 15:00:00 28.2 18 Sur 30 Sudeste 0 -- -- 40
2020-05-04 14:00:00 26.5 19 Sur 33 Sur 0 -- -- 42
2020-05-04 13:00:00 25.7 16 Sur 32 Sur 0 -- -- 47
2020-05-04 12:00:00 23.8 18 Sur 33 Sur 0 -- -- 50
2020-05-04 11:00:00 21.9 19 Sur 36 Sur 0 -- -- 52
2020-05-04 10:00:00 19.5 18 Sur 31 Sur 0 -- -- 59
2020-05-04 09:00:00 18.6 13 Sudeste 25 Sur 0 -- -- 60
2020-05-04 08:00:00 17 14 Sur 25 Sur 0 -- -- 62
2020-05-04 07:00:00 15.9 17 Sur 27 Sur 0 -- -- 66
2020-05-04 06:00:00 16.1 17 Sur 26 Sur 0 -- -- 66
2020-05-04 05:00:00 16.4 17 Sur 26 Sur 0 -- -- 65
2020-05-04 04:00:00 17.2 18 Sur 27 Sur 0 -- -- 61
2020-05-04 03:00:00 17.5 15 Sur 20 Sur 0 -- -- 61
2020-05-04 02:00:00 18.1 14 Sur 21 Sur 0 -- -- 57
2020-05-04 01:00:00 17.1 7 Este 21 Este 0 -- -- 61
2020-05-04 00:00:00 17.4 6 Sudeste 18 Sudoeste 0 -- -- 61
2020-05-03 23:00:00 17.9 6 Sudeste 11 Sudeste 0 -- -- 61
2020-05-03 22:00:00 19.3 9 Sudoeste 13 Sudoeste 0 -- -- 56
2020-05-03 21:00:00 21 8 Sur 10 Sur 0 -- -- 50
2020-05-03 20:00:00 24.4 5 Noroeste 10 Noroeste 0 -- -- 49
2020-05-03 19:00:00 25.3 4 Norte 12 Noroeste 0 -- -- 43
2020-05-03 18:00:00 24.9 9 Noroeste 14 Norte 0 -- -- 40
2020-05-03 17:00:00 24.9 5 Norte 14 Noroeste 0 -- -- 40
2020-05-03 16:00:00 24.3 9 Noroeste 14 Noroeste 0 -- -- 40
2020-05-03 15:00:00 22.9 9 Este 18 Sudeste 0 -- -- 43
2020-05-03 14:00:00 22.1 9 Este 16 Norte 0 -- -- 44
2020-05-03 13:00:00 21.6 6 Norte 17 Nordeste 0 -- -- 43
2020-05-03 12:00:00 19.4 4 Noroeste 10 Noroeste 0 -- -- 55
2020-05-03 11:00:00 17.7 3 Este 8 Este 0 -- -- 66
2020-05-03 10:00:00 15.1 3 Nordeste 10 Este 0 -- -- 76
2020-05-03 09:00:00 12.5 2 Este 5 Este 0 -- -- 84
2020-05-03 08:00:00 10.1 0 Calma 3 Nordeste 0 -- -- 89
2020-05-03 07:00:00 9.3 0 Calma 3 Oeste 0 -- -- 88
2020-05-03 06:00:00 9.9 3 Este 5 Oeste 0 -- -- 88
2020-05-03 05:00:00 10.4 3 Noroeste 6 Sudoeste 0 -- -- 84
2020-05-03 04:00:00 10.7 3 Sudoeste 5 Oeste 0 -- -- 84
2020-05-03 03:00:00 11.3 3 Oeste 6 Sudoeste 0 -- -- 82
2020-05-03 02:00:00 12.4 3 Nordeste 9 Sudoeste 0 -- -- 80
2020-05-03 01:00:00 12.8 0 Calma 8 Sudeste 0 -- -- 79
2020-05-03 00:00:00 13.6 8 Sur 13 Noroeste 0 -- -- 77
2020-05-02 23:00:00 14.5 8 Noroeste 32 Noroeste 0 -- -- 75
2020-05-02 22:00:00 16 21 Noroeste 33 Noroeste 0 -- -- 70
2020-05-02 21:00:00 17.3 18 Noroeste 26 Noroeste 0 -- -- 67
2020-05-02 20:00:00 20.3 19 Noroeste 30 Noroeste 0 -- -- 56
2020-05-02 19:00:00 21.7 18 Noroeste 34 Noroeste 0 -- -- 52
2020-05-02 18:00:00 21.7 17 Noroeste 30 Noroeste 0 -- -- 53
2020-05-02 17:00:00 21.8 22 Noroeste 33 Noroeste 0 -- -- 52
2020-05-02 16:00:00 21.5 14 Noroeste 26 Norte 0 -- -- 56
2020-05-02 15:00:00 21.6 17 Noroeste 28 Noroeste 0 -- -- 58
2020-05-02 14:00:00 20.4 14 Noroeste 29 Noroeste 0 -- -- 60
2020-05-02 13:00:00 19.7 16 Noroeste 24 Noroeste 0 -- -- 64
2020-05-02 12:00:00 18.6 10 Noroeste 20 Noroeste 0 -- -- 70
2020-05-02 11:00:00 17.1 9 Noroeste 16 Oeste 0 -- -- 82
2020-05-02 10:00:00 15.2 2 Oeste 6 Nordeste 0 -- -- 92
2020-05-02 09:00:00 12.6 0 Calma 8 Sudoeste 0 -- -- 97
2020-05-02 08:00:00 11.3 5 Oeste 7 Sudoeste 0 -- -- 96
2020-05-02 07:00:00 12.1 0 Calma 4 Oeste 0 -- -- 96
2020-05-02 06:00:00 12.8 0 Calma 4 Nordeste 0 -- -- 95
2020-05-02 05:00:00 13 3 Sudeste 5 Sudoeste 0 -- -- 95
2020-05-02 04:00:00 12.9 2 Sur 8 Sudeste 0 -- -- 95
2020-05-02 03:00:00 12.9 5 Sudeste 7 Sudeste 1 -- -- 94
2020-05-02 02:00:00 13.2 4 Sudeste 8 Sudeste 0.8 -- -- 93
2020-05-02 01:00:00 13.5 2 Oeste 7 Noroeste 0 -- -- 90
2020-05-02 00:00:00 13.4 5 Oeste 13 Oeste 0.4 -- -- 91
2020-05-01 23:00:00 14 8 Noroeste 10 Oeste 0 -- -- 91
2020-05-01 22:00:00 14.3 4 Oeste 6 Sudoeste 0.2 -- -- 91
2020-05-01 21:00:00 14.9 3 Este 26 Oeste 3.8 -- -- 92
2020-05-01 20:00:00 16.3 5 Noroeste 10 Oeste 1.6 -- -- 86
2020-05-01 19:00:00 18.3 6 Oeste 11 Norte 0 -- -- 76
2020-05-01 18:00:00 17.2 5 Sudeste 12 Este 0 -- -- 77
2020-05-01 17:00:00 15.4 8 Nordeste 31 Nordeste 2.8 -- -- 90
2020-05-01 16:00:00 18.5 9 Nordeste 19 Nordeste 0 -- -- 67
2020-05-01 15:00:00 17.5 5 Nordeste 15 Este 0 -- -- 68
2020-05-01 14:00:00 16.7 7 Este 11 Este 0 -- -- 70
2020-05-01 13:00:00 16 9 Nordeste 17 Nordeste 0 -- -- 70
2020-05-01 12:00:00 16.7 8 Nordeste 17 Nordeste 0 -- -- 67
2020-05-01 11:00:00 15.5 4 Nordeste 13 Este 0 -- -- 71
2020-05-01 10:00:00 13.9 5 Sudeste 9 Sudeste 0 -- -- 78
2020-05-01 09:00:00 11.9 3 Nordeste 6 Este 0.2 -- -- 88
2020-05-01 08:00:00 11.3 5 Nordeste 8 Nordeste 0 -- -- 87
2020-05-01 07:00:00 11 5 Oeste 9 Este 0 -- -- 88
2020-05-01 06:00:00 11.3 6 Noroeste 9 Noroeste 0 -- -- 84
2020-05-01 05:00:00 11.4 3 Sudoeste 7 Noroeste 0 -- -- 85
2020-05-01 04:00:00 11.8 0 Calma 5 Nordeste 0 -- -- 81
2020-05-01 03:00:00 12.4 3 Sudoeste 9 Sudoeste 0 -- -- 76
2020-05-01 02:00:00 12.7 3 Sur 11 Sudoeste 0 -- -- 75
2020-05-01 01:00:00 13.1 10 Oeste 17 Oeste 0 -- -- 70
2020-05-01 00:00:00 13.4 7 Oeste 22 Sudoeste 0 -- -- 67
2020-04-30 23:00:00 13.4 11 Sudoeste 22 Sudoeste 0 -- -- 66
2020-04-30 22:00:00 13.6 15 Sudoeste 20 Sudoeste 0 -- -- 65
2020-04-30 21:00:00 14 10 Sudoeste 21 Sudoeste 0 -- -- 63
2020-04-30 20:00:00 16.4 13 Oeste 29 Noroeste 0 -- -- 52
2020-04-30 19:00:00 17 23 Noroeste 36 Noroeste 0 -- -- 47
2020-04-30 18:00:00 17.9 20 Oeste 43 Oeste 0 -- -- 50
2020-04-30 17:00:00 17.7 20 Oeste 39 Noroeste 0 -- -- 51
2020-04-30 16:00:00 16.4 19 Noroeste 44 Noroeste 0 -- -- 50
2020-04-30 15:00:00 15.8 27 Noroeste 36 Oeste 0 -- -- 51
2020-04-30 14:00:00 15.2 15 Noroeste 26 Noroeste 0 -- -- 57
2020-04-30 13:00:00 13.5 9 Noroeste 18 Noroeste 0 -- -- 60
2020-04-30 12:00:00 13.4 9 Noroeste 22 Sudoeste 0 -- -- 57
2020-04-30 11:00:00 13 7 Este 11 Este 0 -- -- 65
2020-04-30 10:00:00 12 0 Calma 10 Oeste 0 -- -- 70
2020-04-30 09:00:00 11.2 4 Nordeste 12 Oeste 0 -- -- 80
2020-04-30 08:00:00 10.4 9 Oeste 12 Oeste 0 -- -- 74
2020-04-30 07:00:00 10 4 Sudoeste 12 Norte 0 -- -- 82
2020-04-30 06:00:00 10.2 5 Noroeste 9 Noroeste 0 -- -- 80
2020-04-30 05:00:00 10.5 4 Nordeste 10 Noroeste 0 -- -- 76
2020-04-30 04:00:00 11.6 4 Sudeste 19 Oeste 0 -- -- 71
2020-04-30 03:00:00 12.6 16 Oeste 28 Oeste 0 -- -- 66
2020-04-30 02:00:00 12.6 16 Oeste 26 Oeste 0 -- -- 66
2020-04-30 01:00:00 12.4 15 Sudoeste 22 Sudoeste 0 -- -- 68
2020-04-30 00:00:00 13 15 Sudoeste 24 Sudoeste 0 -- -- 66
2020-04-29 23:00:00 13.1 14 Sudoeste 24 Sudoeste 0 -- -- 70
2020-04-29 22:00:00 13.3 15 Sur 22 Sur 0 -- -- 69
2020-04-29 21:00:00 12.7 10 Sudoeste 15 Sur 0 -- -- 78
2020-04-29 20:00:00 15.2 13 Sur 16 Sur 0 -- -- 60
2020-04-29 19:00:00 15.7 8 Sur 22 Sudoeste 0 -- -- 59
2020-04-29 18:00:00 16.1 16 Sudoeste 26 Sudoeste 0 -- -- 56
2020-04-29 17:00:00 16.9 5 Este 13 Sudeste 0 -- -- 54
2020-04-29 16:00:00 16.3 7 Este 13 Este 0 -- -- 54
2020-04-29 15:00:00 16.3 6 Norte 15 Norte 0 -- -- 54
2020-04-29 14:00:00 15 7 Nordeste 14 Este 0 -- -- 57
2020-04-29 13:00:00 14.8 6 Este 16 Sudeste 0 -- -- 58
2020-04-29 12:00:00 13.9 9 Este 19 Este 0 -- -- 62
2020-04-29 11:00:00 13.1 6 Nordeste 14 Nordeste 0 -- -- 66
2020-04-29 10:00:00 11.9 5 Este 10 Este 0 -- -- 72
2020-04-29 09:00:00 8.3 0 Calma 6 Sudeste 0 -- -- 91
2020-04-29 08:00:00 5.9 3 Sur 8 Sudoeste 0 -- -- 92
2020-04-29 07:00:00 4.9 2 Nordeste 4 Oeste 0 -- -- 92
2020-04-29 06:00:00 5.2 0 Calma 4 Sudeste 0 -- -- 92
2020-04-29 05:00:00 5.3 0 Calma 6 Noroeste 0 -- -- 91
2020-04-29 04:00:00 5.6 6 Noroeste 9 Noroeste 0 -- -- 88
2020-04-29 03:00:00 6.3 0 Calma 5 Oeste 0 -- -- 89
2020-04-29 02:00:00 7.2 2 Sudeste 5 Este 0 -- -- 86
2020-04-29 01:00:00 6.9 0 Calma 6 Este 0 -- -- 85
2020-04-29 00:00:00 7.4 3 Norte 6 Sudoeste 0 -- -- 83